sensor_id;sensor_type;location;lat;lon;timestamp;P1;durP1;ratioP1;P2;durP2;ratioP2
29416;SDS011;28421;51.030;4.006;2023-03-01T00:01:47;16.17;;;9.02;;
29416;SDS011;28421;51.030;4.006;2023-03-01T00:04:12;14.52;;;8.98;;
29416;SDS011;28421;51.030;4.006;2023-03-01T00:06:38;12.07;;;8.68;;
29416;SDS011;28421;51.030;4.006;2023-03-01T00:09:03;15.43;;;8.45;;
29416;SDS011;28421;51.030;4.006;2023-03-01T00:11:30;12.55;;;8.80;;
29416;SDS011;28421;51.030;4.006;2023-03-01T00:13:57;11.18;;;8.15;;
29416;SDS011;28421;51.030;4.006;2023-03-01T00:16:27;13.77;;;8.35;;
29416;SDS011;28421;51.030;4.006;2023-03-01T00:18:54;16.98;;;9.23;;
29416;SDS011;28421;51.030;4.006;2023-03-01T00:21:21;9.18;;;7.95;;
29416;SDS011;28421;51.030;4.006;2023-03-01T00:23:47;13.30;;;8.65;;
29416;SDS011;28421;51.030;4.006;2023-03-01T00:26:14;12.77;;;8.13;;
29416;SDS011;28421;51.030;4.006;2023-03-01T00:28:41;13.98;;;8.30;;
29416;SDS011;28421;51.030;4.006;2023-03-01T00:31:09;12.25;;;8.70;;
29416;SDS011;28421;51.030;4.006;2023-03-01T00:33:37;12.43;;;8.38;;
29416;SDS011;28421;51.030;4.006;2023-03-01T05:36:53;16.95;;;10.95;;
29416;SDS011;28421;51.030;4.006;2023-03-01T05:39:23;25.85;;;11.80;;
29416;SDS011;28421;51.030;4.006;2023-03-01T05:41:57;16.73;;;10.70;;
29416;SDS011;28421;51.030;4.006;2023-03-01T05:44:24;14.15;;;9.82;;
29416;SDS011;28421;51.030;4.006;2023-03-01T05:46:51;16.73;;;10.43;;
29416;SDS011;28421;51.030;4.006;2023-03-01T05:49:16;18.30;;;11.10;;
29416;SDS011;28421;51.030;4.006;2023-03-01T05:51:43;17.52;;;11.38;;
29416;SDS011;28421;51.030;4.006;2023-03-01T05:54:12;22.38;;;12.73;;
29416;SDS011;28421;51.030;4.006;2023-03-01T05:56:37;19.75;;;11.02;;
29416;SDS011;28421;51.030;4.006;2023-03-01T05:59:03;14.38;;;10.38;;
29416;SDS011;28421;51.030;4.006;2023-03-01T06:01:33;19.15;;;9.93;;
29416;SDS011;28421;51.030;4.006;2023-03-01T06:03:59;22.02;;;12.23;;
29416;SDS011;28421;51.030;4.006;2023-03-01T06:06:33;19.80;;;10.60;;
29416;SDS011;28421;51.030;4.006;2023-03-01T06:09:02;17.23;;;10.38;;
29416;SDS011;28421;51.030;4.006;2023-03-01T06:11:28;19.80;;;11.18;;
29416;SDS011;28421;51.030;4.006;2023-03-01T06:13:54;13.98;;;10.10;;
29416;SDS011;28421;51.030;4.006;2023-03-01T06:16:19;17.30;;;10.52;;
29416;SDS011;28421;51.030;4.006;2023-03-01T06:18:45;14.80;;;10.13;;
29416;SDS011;28421;51.030;4.006;2023-03-01T06:21:10;19.27;;;11.43;;
29416;SDS011;28421;51.030;4.006;2023-03-01T06:23:36;14.90;;;9.43;;
29416;SDS011;28421;51.030;4.006;2023-03-01T06:26:04;14.90;;;9.80;;
29416;SDS011;28421;51.030;4.006;2023-03-01T06:28:31;21.00;;;12.88;;
29416;SDS011;28421;51.030;4.006;2023-03-01T06:30:56;21.13;;;10.90;;
29416;SDS011;28421;51.030;4.006;2023-03-01T06:33:22;18.30;;;11.43;;
29416;SDS011;28421;51.030;4.006;2023-03-01T06:35:49;17.65;;;10.20;;
29416;SDS011;28421;51.030;4.006;2023-03-01T06:38:15;15.90;;;10.55;;
29416;SDS011;28421;51.030;4.006;2023-03-01T06:40:43;17.65;;;9.95;;
29416;SDS011;28421;51.030;4.006;2023-03-01T06:43:09;22.60;;;10.88;;
29416;SDS011;28421;51.030;4.006;2023-03-01T06:45:34;17.95;;;10.80;;
29416;SDS011;28421;51.030;4.006;2023-03-01T06:48:06;21.65;;;11.52;;
29416;SDS011;28421;51.030;4.006;2023-03-01T06:50:33;19.42;;;11.77;;
29416;SDS011;28421;51.030;4.006;2023-03-01T06:52:59;22.05;;;11.88;;
29416;SDS011;28421;51.030;4.006;2023-03-01T06:55:24;21.38;;;11.43;;
29416;SDS011;28421;51.030;4.006;2023-03-01T06:57:53;22.52;;;11.30;;
29416;SDS011;28421;51.030;4.006;2023-03-01T07:00:23;22.80;;;12.48;;
29416;SDS011;28421;51.030;4.006;2023-03-01T07:02:49;25.92;;;15.48;;
29416;SDS011;28421;51.030;4.006;2023-03-01T07:05:14;34.13;;;16.00;;
29416;SDS011;28421;51.030;4.006;2023-03-01T07:07:40;30.65;;;15.85;;
29416;SDS011;28421;51.030;4.006;2023-03-01T07:10:05;26.80;;;13.55;;
29416;SDS011;28421;51.030;4.006;2023-03-01T07:12:32;20.08;;;12.27;;
29416;SDS011;28421;51.030;4.006;2023-03-01T07:14:57;20.80;;;12.05;;
29416;SDS011;28421;51.030;4.006;2023-03-01T07:17:22;25.23;;;11.90;;
29416;SDS011;28421;51.030;4.006;2023-03-01T07:19:48;18.92;;;11.23;;
29416;SDS011;28421;51.030;4.006;2023-03-01T07:22:13;25.88;;;10.82;;
29416;SDS011;28421;51.030;4.006;2023-03-01T07:24:39;23.17;;;10.80;;
29416;SDS011;28421;51.030;4.006;2023-03-01T07:27:06;23.00;;;12.90;;
29416;SDS011;28421;51.030;4.006;2023-03-01T07:29:31;26.80;;;11.35;;
29416;SDS011;28421;51.030;4.006;2023-03-01T07:31:57;17.77;;;11.32;;
29416;SDS011;28421;51.030;4.006;2023-03-01T07:34:23;20.88;;;10.93;;
29416;SDS011;28421;51.030;4.006;2023-03-01T07:36:49;22.85;;;12.00;;
29416;SDS011;28421;51.030;4.006;2023-03-01T07:39:14;17.88;;;12.15;;
29416;SDS011;28421;51.030;4.006;2023-03-01T07:41:40;18.42;;;12.02;;
29416;SDS011;28421;51.030;4.006;2023-03-01T07:44:05;20.83;;;11.57;;
29416;SDS011;28421;51.030;4.006;2023-03-01T07:46:31;28.65;;;12.18;;
29416;SDS011;28421;51.030;4.006;2023-03-01T07:48:57;19.38;;;11.13;;
29416;SDS011;28421;51.030;4.006;2023-03-01T07:51:23;18.30;;;11.75;;
29416;SDS011;28421;51.030;4.006;2023-03-01T07:53:48;16.75;;;10.52;;
29416;SDS011;28421;51.030;4.006;2023-03-01T07:56:14;22.67;;;13.05;;
29416;SDS011;28421;51.030;4.006;2023-03-01T07:58:43;17.95;;;11.10;;
29416;SDS011;28421;51.030;4.006;2023-03-01T08:01:10;20.85;;;10.65;;
29416;SDS011;28421;51.030;4.006;2023-03-01T08:03:40;30.48;;;12.55;;
29416;SDS011;28421;51.030;4.006;2023-03-01T08:06:08;21.98;;;11.52;;
29416;SDS011;28421;51.030;4.006;2023-03-01T08:08:34;17.75;;;10.52;;
29416;SDS011;28421;51.030;4.006;2023-03-01T08:11:01;19.52;;;12.00;;
29416;SDS011;28421;51.030;4.006;2023-03-01T08:13:28;19.90;;;10.88;;
29416;SDS011;28421;51.030;4.006;2023-03-01T08:15:54;17.58;;;11.38;;
29416;SDS011;28421;51.030;4.006;2023-03-01T08:18:20;24.67;;;12.05;;
29416;SDS011;28421;51.030;4.006;2023-03-01T08:20:46;23.88;;;12.38;;
29416;SDS011;28421;51.030;4.006;2023-03-01T08:23:12;18.63;;;10.00;;
29416;SDS011;28421;51.030;4.006;2023-03-01T08:25:38;25.98;;;11.77;;
29416;SDS011;28421;51.030;4.006;2023-03-01T08:28:04;14.50;;;9.32;;
29416;SDS011;28421;51.030;4.006;2023-03-01T08:30:30;25.55;;;10.95;;
29416;SDS011;28421;51.030;4.006;2023-03-01T08:32:55;19.15;;;10.95;;
29416;SDS011;28421;51.030;4.006;2023-03-01T08:35:21;18.40;;;11.55;;
29416;SDS011;28421;51.030;4.006;2023-03-01T08:37:46;21.67;;;11.40;;
29416;SDS011;28421;51.030;4.006;2023-03-01T08:40:12;17.65;;;11.27;;
29416;SDS011;28421;51.030;4.006;2023-03-01T08:42:39;19.73;;;10.32;;
29416;SDS011;28421;51.030;4.006;2023-03-01T08:45:05;22.08;;;12.55;;
29416;SDS011;28421;51.030;4.006;2023-03-01T08:47:31;16.25;;;10.35;;
29416;SDS011;28421;51.030;4.006;2023-03-01T08:49:58;17.50;;;9.95;;
29416;SDS011;28421;51.030;4.006;2023-03-01T08:52:24;15.50;;;9.80;;
29416;SDS011;28421;51.030;4.006;2023-03-01T08:54:51;22.00;;;12.10;;
29416;SDS011;28421;51.030;4.006;2023-03-01T08:57:16;20.52;;;11.43;;
29416;SDS011;28421;51.030;4.006;2023-03-01T08:59:42;15.40;;;9.57;;
29416;SDS011;28421;51.030;4.006;2023-03-01T09:02:11;16.88;;;9.55;;
29416;SDS011;28421;51.030;4.006;2023-03-01T09:07:07;16.65;;;9.25;;
29416;SDS011;28421;51.030;4.006;2023-03-01T09:09:34;20.00;;;11.13;;
29416;SDS011;28421;51.030;4.006;2023-03-01T09:12:00;20.10;;;11.65;;
29416;SDS011;28421;51.030;4.006;2023-03-01T09:14:26;13.77;;;9.10;;
29416;SDS011;28421;51.030;4.006;2023-03-01T09:16:51;19.85;;;10.38;;
29416;SDS011;28421;51.030;4.006;2023-03-01T09:19:17;16.38;;;10.70;;
29416;SDS011;28421;51.030;4.006;2023-03-01T09:21:42;17.88;;;9.95;;
29416;SDS011;28421;51.030;4.006;2023-03-01T09:24:17;13.57;;;8.93;;
29416;SDS011;28421;51.030;4.006;2023-03-01T09:26:44;15.52;;;9.90;;
29416;SDS011;28421;51.030;4.006;2023-03-01T09:29:11;13.82;;;8.68;;
29416;SDS011;28421;51.030;4.006;2023-03-01T09:31:38;19.05;;;9.68;;
29416;SDS011;28421;51.030;4.006;2023-03-01T09:34:04;14.30;;;8.68;;
29416;SDS011;28421;51.030;4.006;2023-03-01T09:36:30;14.30;;;9.45;;
29416;SDS011;28421;51.030;4.006;2023-03-01T09:38:56;14.85;;;9.05;;
29416;SDS011;28421;51.030;4.006;2023-03-01T09:47:00;12.05;;;8.57;;
29416;SDS011;28421;51.030;4.006;2023-03-01T09:49:30;15.70;;;9.40;;
29416;SDS011;28421;51.030;4.006;2023-03-01T09:54:40;14.27;;;8.68;;
29416;SDS011;28421;51.030;4.006;2023-03-01T10:02:39;15.88;;;9.43;;
29416;SDS011;28421;51.030;4.006;2023-03-01T10:05:13;13.25;;;8.30;;
29416;SDS011;28421;51.030;4.006;2023-03-01T10:10:42;14.07;;;8.10;;
29416;SDS011;28421;51.030;4.006;2023-03-01T10:15:50;13.90;;;8.90;;
29416;SDS011;28421;51.030;4.006;2023-03-01T10:18:27;13.05;;;8.30;;
29416;SDS011;28421;51.030;4.006;2023-03-01T10:21:02;18.15;;;9.73;;
29416;SDS011;28421;51.030;4.006;2023-03-01T10:23:36;13.70;;;9.20;;
29416;SDS011;28421;51.030;4.006;2023-03-01T10:29:10;16.00;;;8.35;;
29416;SDS011;28421;51.030;4.006;2023-03-01T10:31:41;16.58;;;9.32;;
29416;SDS011;28421;51.030;4.006;2023-03-01T10:34:14;14.23;;;9.05;;
29416;SDS011;28421;51.030;4.006;2023-03-01T10:36:39;13.93;;;8.52;;
29416;SDS011;28421;51.030;4.006;2023-03-01T10:39:12;12.95;;;8.40;;
29416;SDS011;28421;51.030;4.006;2023-03-01T10:41:55;14.13;;;8.77;;
29416;SDS011;28421;51.030;4.006;2023-03-01T10:44:34;14.35;;;8.75;;
29416;SDS011;28421;51.030;4.006;2023-03-01T10:47:13;16.13;;;9.63;;
29416;SDS011;28421;51.030;4.006;2023-03-01T10:49:38;15.48;;;7.65;;
29416;SDS011;28421;51.030;4.006;2023-03-01T10:52:55;11.75;;;8.10;;
29416;SDS011;28421;51.030;4.006;2023-03-01T10:54:56;13.32;;;7.65;;
29416;SDS011;28421;51.030;4.006;2023-03-01T11:00:14;10.38;;;7.30;;
29416;SDS011;28421;51.030;4.006;2023-03-01T11:05:23;15.05;;;8.32;;
29416;SDS011;28421;51.030;4.006;2023-03-01T11:07:55;14.00;;;8.93;;
29416;SDS011;28421;51.030;4.006;2023-03-01T11:10:29;12.52;;;6.95;;
29416;SDS011;28421;51.030;4.006;2023-03-01T11:16:00;15.32;;;7.35;;
29416;SDS011;28421;51.030;4.006;2023-03-01T11:18:27;15.40;;;8.33;;
29416;SDS011;28421;51.030;4.006;2023-03-01T11:20:55;20.25;;;7.22;;
29416;SDS011;28421;51.030;4.006;2023-03-01T11:23:23;10.73;;;7.15;;
29416;SDS011;28421;51.030;4.006;2023-03-01T11:25:53;12.02;;;8.18;;
29416;SDS011;28421;51.030;4.006;2023-03-01T11:28:21;14.52;;;8.27;;
29416;SDS011;28421;51.030;4.006;2023-03-01T11:30:58;14.52;;;8.20;;
29416;SDS011;28421;51.030;4.006;2023-03-01T11:42:15;13.40;;;8.70;;
29416;SDS011;28421;51.030;4.006;2023-03-01T11:44:45;13.98;;;8.27;;
29416;SDS011;28421;51.030;4.006;2023-03-01T11:47:16;13.13;;;8.52;;
29416;SDS011;28421;51.030;4.006;2023-03-01T11:50:44;9.60;;;6.80;;
29416;SDS011;28421;51.030;4.006;2023-03-01T12:01:43;13.02;;;8.40;;
29416;SDS011;28421;51.030;4.006;2023-03-01T12:09:27;17.67;;;7.78;;
29416;SDS011;28421;51.030;4.006;2023-03-01T12:26:33;8.63;;;6.75;;
29416;SDS011;28421;51.030;4.006;2023-03-01T12:31:41;11.25;;;7.03;;
29416;SDS011;28421;51.030;4.006;2023-03-01T12:34:43;11.35;;;7.47;;
29416;SDS011;28421;51.030;4.006;2023-03-01T12:48:37;9.32;;;6.65;;
29416;SDS011;28421;51.030;4.006;2023-03-01T12:51:04;11.35;;;7.18;;
29416;SDS011;28421;51.030;4.006;2023-03-01T12:53:36;15.77;;;7.72;;
29416;SDS011;28421;51.030;4.006;2023-03-01T12:56:05;9.68;;;6.05;;
29416;SDS011;28421;51.030;4.006;2023-03-01T13:01:32;12.80;;;6.60;;
29416;SDS011;28421;51.030;4.006;2023-03-01T13:09:35;11.65;;;6.72;;
29416;SDS011;28421;51.030;4.006;2023-03-01T13:12:41;9.48;;;6.07;;
29416;SDS011;28421;51.030;4.006;2023-03-01T13:15:24;11.07;;;6.80;;
29416;SDS011;28421;51.030;4.006;2023-03-01T13:17:50;14.00;;;7.22;;
29416;SDS011;28421;51.030;4.006;2023-03-01T13:20:23;9.27;;;5.55;;
29416;SDS011;28421;51.030;4.006;2023-03-01T13:23:06;15.93;;;6.80;;
29416;SDS011;28421;51.030;4.006;2023-03-01T13:30:58;8.68;;;6.10;;
29416;SDS011;28421;51.030;4.006;2023-03-01T13:35:53;11.60;;;6.88;;
29416;SDS011;28421;51.030;4.006;2023-03-01T13:41:11;10.93;;;6.07;;
29416;SDS011;28421;51.030;4.006;2023-03-01T13:43:40;14.07;;;6.40;;
29416;SDS011;28421;51.030;4.006;2023-03-01T13:46:11;11.27;;;7.43;;
29416;SDS011;28421;51.030;4.006;2023-03-01T13:48:50;8.02;;;5.93;;
29416;SDS011;28421;51.030;4.006;2023-03-01T13:51:20;9.68;;;6.25;;
29416;SDS011;28421;51.030;4.006;2023-03-01T13:53:49;10.10;;;5.85;;
29416;SDS011;28421;51.030;4.006;2023-03-01T13:56:20;6.95;;;5.30;;
29416;SDS011;28421;51.030;4.006;2023-03-01T13:58:51;10.77;;;6.78;;
29416;SDS011;28421;51.030;4.006;2023-03-01T14:01:21;7.80;;;5.78;;
29416;SDS011;28421;51.030;4.006;2023-03-01T14:03:47;11.07;;;6.28;;
29416;SDS011;28421;51.030;4.006;2023-03-01T14:06:13;13.60;;;5.90;;
29416;SDS011;28421;51.030;4.006;2023-03-01T14:08:40;9.43;;;6.00;;
29416;SDS011;28421;51.030;4.006;2023-03-01T14:13:51;8.95;;;6.85;;
29416;SDS011;28421;51.030;4.006;2023-03-01T14:19:24;9.63;;;6.80;;
29416;SDS011;28421;51.030;4.006;2023-03-01T14:21:59;8.70;;;6.00;;
29416;SDS011;28421;51.030;4.006;2023-03-01T14:27:16;11.52;;;7.38;;
29416;SDS011;28421;51.030;4.006;2023-03-01T14:29:43;13.40;;;6.22;;
29416;SDS011;28421;51.030;4.006;2023-03-01T14:32:19;9.15;;;6.10;;
29416;SDS011;28421;51.030;4.006;2023-03-01T14:34:49;8.75;;;6.70;;
29416;SDS011;28421;51.030;4.006;2023-03-01T14:37:20;10.18;;;6.80;;
29416;SDS011;28421;51.030;4.006;2023-03-01T14:39:57;9.10;;;5.88;;
29416;SDS011;28421;51.030;4.006;2023-03-01T14:42:25;14.05;;;6.72;;
29416;SDS011;28421;51.030;4.006;2023-03-01T14:44:55;13.63;;;6.25;;
29416;SDS011;28421;51.030;4.006;2023-03-01T14:49:54;12.13;;;6.72;;
29416;SDS011;28421;51.030;4.006;2023-03-01T14:52:31;14.18;;;6.85;;
29416;SDS011;28421;51.030;4.006;2023-03-01T14:55:01;9.45;;;6.70;;
29416;SDS011;28421;51.030;4.006;2023-03-01T14:57:28;10.80;;;7.13;;
29416;SDS011;28421;51.030;4.006;2023-03-01T14:59:55;11.85;;;6.65;;
29416;SDS011;28421;51.030;4.006;2023-03-01T15:02:28;10.90;;;6.78;;
29416;SDS011;28421;51.030;4.006;2023-03-01T15:04:56;18.55;;;8.82;;
29416;SDS011;28421;51.030;4.006;2023-03-01T15:07:32;12.25;;;6.78;;
29416;SDS011;28421;51.030;4.006;2023-03-01T15:10:00;9.18;;;6.60;;
29416;SDS011;28421;51.030;4.006;2023-03-01T15:14:53;8.73;;;6.13;;
29416;SDS011;28421;51.030;4.006;2023-03-01T15:19:54;10.57;;;6.70;;
29416;SDS011;28421;51.030;4.006;2023-03-01T15:22:19;9.13;;;6.50;;
29416;SDS011;28421;51.030;4.006;2023-03-01T15:24:47;9.38;;;6.53;;
29416;SDS011;28421;51.030;4.006;2023-03-01T15:27:21;13.38;;;6.38;;
29416;SDS011;28421;51.030;4.006;2023-03-01T15:29:52;20.98;;;7.00;;
29416;SDS011;28421;51.030;4.006;2023-03-01T15:32:28;10.32;;;6.22;;
29416;SDS011;28421;51.030;4.006;2023-03-01T15:34:58;12.95;;;6.68;;
29416;SDS011;28421;51.030;4.006;2023-03-01T15:37:49;12.93;;;7.82;;
29416;SDS011;28421;51.030;4.006;2023-03-01T15:40:18;12.43;;;7.93;;
29416;SDS011;28421;51.030;4.006;2023-03-01T15:47:41;10.57;;;6.72;;
29416;SDS011;28421;51.030;4.006;2023-03-01T15:50:32;12.07;;;6.28;;
29416;SDS011;28421;51.030;4.006;2023-03-01T15:53:00;17.38;;;6.45;;
29416;SDS011;28421;51.030;4.006;2023-03-01T15:55:29;9.25;;;6.22;;
29416;SDS011;28421;51.030;4.006;2023-03-01T16:00:40;9.88;;;6.40;;
29416;SDS011;28421;51.030;4.006;2023-03-01T16:03:07;10.20;;;6.10;;
29416;SDS011;28421;51.030;4.006;2023-03-01T16:05:36;9.52;;;5.93;;
29416;SDS011;28421;51.030;4.006;2023-03-01T16:08:03;12.18;;;5.85;;
29416;SDS011;28421;51.030;4.006;2023-03-01T16:10:33;10.60;;;6.13;;
29416;SDS011;28421;51.030;4.006;2023-03-01T16:13:00;10.15;;;6.22;;
29416;SDS011;28421;51.030;4.006;2023-03-01T16:15:26;7.72;;;5.82;;
29416;SDS011;28421;51.030;4.006;2023-03-01T16:17:54;9.15;;;5.82;;
29416;SDS011;28421;51.030;4.006;2023-03-01T16:20:20;10.15;;;5.53;;
29416;SDS011;28421;51.030;4.006;2023-03-01T16:22:47;12.23;;;6.10;;
29416;SDS011;28421;51.030;4.006;2023-03-01T16:25:14;10.23;;;6.38;;
29416;SDS011;28421;51.030;4.006;2023-03-01T16:27:42;8.32;;;6.28;;
29416;SDS011;28421;51.030;4.006;2023-03-01T16:30:09;8.70;;;6.53;;
29416;SDS011;28421;51.030;4.006;2023-03-01T16:32:39;16.33;;;6.43;;
29416;SDS011;28421;51.030;4.006;2023-03-01T16:35:09;11.57;;;6.75;;
29416;SDS011;28421;51.030;4.006;2023-03-01T16:37:36;11.77;;;7.00;;
29416;SDS011;28421;51.030;4.006;2023-03-01T16:40:03;11.05;;;6.55;;
29416;SDS011;28421;51.030;4.006;2023-03-01T16:42:33;7.05;;;5.57;;
29416;SDS011;28421;51.030;4.006;2023-03-01T16:47:32;8.65;;;6.63;;
29416;SDS011;28421;51.030;4.006;2023-03-01T16:49:58;8.57;;;6.22;;
29416;SDS011;28421;51.030;4.006;2023-03-01T16:52:23;10.20;;;6.85;;
29416;SDS011;28421;51.030;4.006;2023-03-01T16:54:49;10.82;;;6.68;;
29416;SDS011;28421;51.030;4.006;2023-03-01T16:57:14;9.10;;;6.80;;
29416;SDS011;28421;51.030;4.006;2023-03-01T16:59:40;10.98;;;7.80;;
29416;SDS011;28421;51.030;4.006;2023-03-01T17:02:06;9.43;;;7.05;;
29416;SDS011;28421;51.030;4.006;2023-03-01T17:04:35;10.38;;;7.43;;
29416;SDS011;28421;51.030;4.006;2023-03-01T17:07:00;11.00;;;6.93;;
29416;SDS011;28421;51.030;4.006;2023-03-01T17:09:25;11.63;;;7.32;;
29416;SDS011;28421;51.030;4.006;2023-03-01T17:11:51;14.98;;;8.20;;
29416;SDS011;28421;51.030;4.006;2023-03-01T17:14:16;15.02;;;8.95;;
29416;SDS011;28421;51.030;4.006;2023-03-01T17:16:42;11.38;;;7.68;;
29416;SDS011;28421;51.030;4.006;2023-03-01T17:19:09;10.15;;;6.72;;
29416;SDS011;28421;51.030;4.006;2023-03-01T17:21:34;11.57;;;7.18;;
29416;SDS011;28421;51.030;4.006;2023-03-01T17:24:00;15.77;;;7.32;;
29416;SDS011;28421;51.030;4.006;2023-03-01T17:26:26;13.65;;;8.02;;
29416;SDS011;28421;51.030;4.006;2023-03-01T17:28:53;14.77;;;7.70;;
29416;SDS011;28421;51.030;4.006;2023-03-01T17:31:20;12.70;;;7.22;;
29416;SDS011;28421;51.030;4.006;2023-03-01T17:33:46;12.20;;;7.90;;
29416;SDS011;28421;51.030;4.006;2023-03-01T17:36:11;17.55;;;7.68;;
29416;SDS011;28421;51.030;4.006;2023-03-01T17:38:37;13.80;;;7.20;;
29416;SDS011;28421;51.030;4.006;2023-03-01T17:41:03;14.82;;;8.23;;
29416;SDS011;28421;51.030;4.006;2023-03-01T17:43:29;13.70;;;8.57;;
29416;SDS011;28421;51.030;4.006;2023-03-01T17:45:55;11.52;;;7.85;;
29416;SDS011;28421;51.030;4.006;2023-03-01T17:48:21;15.05;;;8.02;;
29416;SDS011;28421;51.030;4.006;2023-03-01T17:50:46;14.15;;;8.05;;
29416;SDS011;28421;51.030;4.006;2023-03-01T17:53:12;13.80;;;8.57;;
29416;SDS011;28421;51.030;4.006;2023-03-01T17:55:38;17.10;;;7.57;;
29416;SDS011;28421;51.030;4.006;2023-03-01T17:58:05;22.35;;;9.25;;
29416;SDS011;28421;51.030;4.006;2023-03-01T18:00:31;12.18;;;8.00;;
29416;SDS011;28421;51.030;4.006;2023-03-01T18:02:57;13.85;;;8.73;;
29416;SDS011;28421;51.030;4.006;2023-03-01T18:05:23;13.57;;;7.72;;
29416;SDS011;28421;51.030;4.006;2023-03-01T18:07:49;10.90;;;7.82;;
29416;SDS011;28421;51.030;4.006;2023-03-01T18:10:16;13.32;;;8.90;;
29416;SDS011;28421;51.030;4.006;2023-03-01T18:12:42;14.88;;;8.40;;
29416;SDS011;28421;51.030;4.006;2023-03-01T18:15:09;14.68;;;8.70;;
29416;SDS011;28421;51.030;4.006;2023-03-01T18:17:35;17.58;;;10.02;;
29416;SDS011;28421;51.030;4.006;2023-03-01T18:20:00;18.63;;;9.38;;
29416;SDS011;28421;51.030;4.006;2023-03-01T18:22:26;16.27;;;9.60;;
29416;SDS011;28421;51.030;4.006;2023-03-01T18:24:51;15.20;;;8.85;;
29416;SDS011;28421;51.030;4.006;2023-03-01T18:27:17;13.65;;;8.40;;
29416;SDS011;28421;51.030;4.006;2023-03-01T18:29:42;14.65;;;9.25;;
29416;SDS011;28421;51.030;4.006;2023-03-01T18:32:08;16.15;;;9.63;;
29416;SDS011;28421;51.030;4.006;2023-03-01T18:34:33;18.65;;;8.63;;
29416;SDS011;28421;51.030;4.006;2023-03-01T18:36:59;16.65;;;9.73;;
29416;SDS011;28421;51.030;4.006;2023-03-01T18:39:27;16.45;;;9.02;;
29416;SDS011;28421;51.030;4.006;2023-03-01T18:41:52;17.85;;;9.57;;
29416;SDS011;28421;51.030;4.006;2023-03-01T18:44:18;12.88;;;9.27;;
29416;SDS011;28421;51.030;4.006;2023-03-01T18:46:43;16.35;;;10.77;;
29416;SDS011;28421;51.030;4.006;2023-03-01T18:49:11;15.00;;;10.38;;
29416;SDS011;28421;51.030;4.006;2023-03-01T18:51:38;27.08;;;11.25;;
29416;SDS011;28421;51.030;4.006;2023-03-01T18:54:04;18.13;;;11.10;;
29416;SDS011;28421;51.030;4.006;2023-03-01T18:56:30;13.95;;;10.43;;
29416;SDS011;28421;51.030;4.006;2023-03-01T18:58:57;16.20;;;10.32;;
29416;SDS011;28421;51.030;4.006;2023-03-01T19:01:28;18.23;;;9.88;;
29416;SDS011;28421;51.030;4.006;2023-03-01T19:03:55;24.60;;;11.50;;
29416;SDS011;28421;51.030;4.006;2023-03-01T19:06:21;23.38;;;12.23;;
29416;SDS011;28421;51.030;4.006;2023-03-01T19:08:48;15.65;;;9.13;;
29416;SDS011;28421;51.030;4.006;2023-03-01T19:11:16;22.95;;;11.68;;
29416;SDS011;28421;51.030;4.006;2023-03-01T19:13:42;17.60;;;10.65;;
29416;SDS011;28421;51.030;4.006;2023-03-01T19:16:10;17.17;;;10.73;;
29416;SDS011;28421;51.030;4.006;2023-03-01T19:18:41;17.65;;;10.23;;
29416;SDS011;28421;51.030;4.006;2023-03-01T19:21:08;22.40;;;11.25;;
29416;SDS011;28421;51.030;4.006;2023-03-01T19:23:35;22.70;;;11.07;;
29416;SDS011;28421;51.030;4.006;2023-03-01T19:26:12;21.50;;;11.75;;
29416;SDS011;28421;51.030;4.006;2023-03-01T19:28:39;18.25;;;11.43;;
29416;SDS011;28421;51.030;4.006;2023-03-01T19:31:09;16.05;;;11.05;;
29416;SDS011;28421;51.030;4.006;2023-03-01T19:33:36;23.60;;;11.40;;
29416;SDS011;28421;51.030;4.006;2023-03-01T19:36:04;18.65;;;11.30;;
29416;SDS011;28421;51.030;4.006;2023-03-01T19:38:30;19.92;;;11.45;;
29416;SDS011;28421;51.030;4.006;2023-03-01T19:40:55;27.08;;;13.73;;
29416;SDS011;28421;51.030;4.006;2023-03-01T19:43:22;30.17;;;15.25;;
29416;SDS011;28421;51.030;4.006;2023-03-01T19:45:51;23.40;;;12.15;;
29416;SDS011;28421;51.030;4.006;2023-03-01T19:48:17;28.35;;;11.73;;
29416;SDS011;28421;51.030;4.006;2023-03-01T19:50:43;21.05;;;10.73;;
29416;SDS011;28421;51.030;4.006;2023-03-01T19:53:12;19.38;;;11.75;;
29416;SDS011;28421;51.030;4.006;2023-03-01T19:55:39;22.80;;;13.00;;
29416;SDS011;28421;51.030;4.006;2023-03-01T19:58:05;24.02;;;13.23;;
29416;SDS011;28421;51.030;4.006;2023-03-01T20:00:31;22.10;;;13.05;;
29416;SDS011;28421;51.030;4.006;2023-03-01T20:02:58;20.70;;;11.38;;
29416;SDS011;28421;51.030;4.006;2023-03-01T20:05:24;28.35;;;12.25;;
29416;SDS011;28421;51.030;4.006;2023-03-01T20:07:49;23.00;;;12.65;;
29416;SDS011;28421;51.030;4.006;2023-03-01T20:10:15;21.08;;;12.63;;
29416;SDS011;28421;51.030;4.006;2023-03-01T20:12:41;17.73;;;11.15;;
29416;SDS011;28421;51.030;4.006;2023-03-01T20:15:08;21.30;;;11.98;;
29416;SDS011;28421;51.030;4.006;2023-03-01T20:17:34;22.33;;;11.73;;
29416;SDS011;28421;51.030;4.006;2023-03-01T20:20:00;29.08;;;12.57;;
29416;SDS011;28421;51.030;4.006;2023-03-01T20:22:25;21.42;;;12.75;;
29416;SDS011;28421;51.030;4.006;2023-03-01T20:24:51;42.80;;;18.50;;
29416;SDS011;28421;51.030;4.006;2023-03-01T20:27:16;56.72;;;24.30;;
29416;SDS011;28421;51.030;4.006;2023-03-01T20:29:41;48.88;;;20.30;;
29416;SDS011;28421;51.030;4.006;2023-03-01T20:32:07;39.65;;;18.27;;
29416;SDS011;28421;51.030;4.006;2023-03-01T20:34:35;36.22;;;17.58;;
29416;SDS011;28421;51.030;4.006;2023-03-01T20:37:00;37.30;;;16.67;;
29416;SDS011;28421;51.030;4.006;2023-03-01T20:39:26;35.25;;;16.50;;
29416;SDS011;28421;51.030;4.006;2023-03-01T20:41:52;36.95;;;15.27;;
29416;SDS011;28421;51.030;4.006;2023-03-01T20:44:17;21.58;;;13.02;;
29416;SDS011;28421;51.030;4.006;2023-03-01T20:46:44;20.05;;;12.05;;
29416;SDS011;28421;51.030;4.006;2023-03-01T20:49:09;22.25;;;10.93;;
29416;SDS011;28421;51.030;4.006;2023-03-01T20:51:35;21.98;;;11.32;;
29416;SDS011;28421;51.030;4.006;2023-03-01T20:54:01;17.00;;;10.63;;
29416;SDS011;28421;51.030;4.006;2023-03-01T20:56:27;23.90;;;12.00;;
29416;SDS011;28421;51.030;4.006;2023-03-01T20:59:03;22.60;;;13.15;;
29416;SDS011;28421;51.030;4.006;2023-03-01T21:01:29;20.55;;;12.15;;
29416;SDS011;28421;51.030;4.006;2023-03-01T21:03:55;32.80;;;16.42;;
29416;SDS011;28421;51.030;4.006;2023-03-01T21:06:20;22.45;;;12.10;;
29416;SDS011;28421;51.030;4.006;2023-03-01T21:08:46;22.63;;;13.68;;
29416;SDS011;28421;51.030;4.006;2023-03-01T21:11:11;22.60;;;12.93;;
29416;SDS011;28421;51.030;4.006;2023-03-01T21:13:37;26.27;;;13.48;;
29416;SDS011;28421;51.030;4.006;2023-03-01T21:16:07;30.52;;;14.93;;
29416;SDS011;28421;51.030;4.006;2023-03-01T21:21:03;21.77;;;11.52;;
29416;SDS011;28421;51.030;4.006;2023-03-01T21:23:31;22.98;;;11.73;;
29416;SDS011;28421;51.030;4.006;2023-03-01T21:26:00;23.95;;;12.25;;
29416;SDS011;28421;51.030;4.006;2023-03-01T21:28:27;20.80;;;11.82;;
29416;SDS011;28421;51.030;4.006;2023-03-01T21:31:00;19.33;;;10.13;;
29416;SDS011;28421;51.030;4.006;2023-03-01T21:33:27;22.45;;;11.50;;
29416;SDS011;28421;51.030;4.006;2023-03-01T21:35:56;21.63;;;12.85;;
29416;SDS011;28421;51.030;4.006;2023-03-01T21:38:23;27.17;;;11.68;;
29416;SDS011;28421;51.030;4.006;2023-03-01T21:40:48;21.08;;;10.27;;
29416;SDS011;28421;51.030;4.006;2023-03-01T21:43:13;18.25;;;10.88;;
29416;SDS011;28421;51.030;4.006;2023-03-01T21:45:39;24.27;;;11.57;;
29416;SDS011;28421;51.030;4.006;2023-03-01T21:48:05;24.42;;;11.18;;
29416;SDS011;28421;51.030;4.006;2023-03-01T21:50:30;16.45;;;10.40;;